createdAt,value
2023-07-06T01:11:22.148Z,49.64
2023-07-06T01:13:53.256Z,49.44
2023-07-06T01:16:58.545Z,48.67
2023-07-06T01:19:40.382Z,50.29
2023-07-06T01:22:26.176Z,51.07
2023-07-06T01:25:27.161Z,48.68
2023-07-06T01:28:05.301Z,51.22
2023-07-06T01:30:38.139Z,51.12
2023-07-06T01:33:18.948Z,50.70
2023-07-06T01:35:51.536Z,51.17
2023-07-06T01:38:18.406Z,51.46
2023-07-06T01:40:45.104Z,51.96
2023-07-06T01:43:12.196Z,51.55
2023-07-06T01:45:39.011Z,51.60
2023-07-06T01:48:08.643Z,51.56
2023-07-06T01:50:53.597Z,50.48
2023-07-06T01:53:32.259Z,51.64
2023-07-06T01:56:05.417Z,51.08
2023-07-06T01:58:46.573Z,50.14
2023-07-06T02:01:18.201Z,51.52
2023-07-06T02:03:45.519Z,51.44
2023-07-06T02:06:13.315Z,51.77
2023-07-06T02:08:43.307Z,51.61
2023-07-06T02:11:15.413Z,52.23
2023-07-06T02:13:42.878Z,51.81
2023-07-06T02:16:11.191Z,52.08
2023-07-06T02:18:38.068Z,52.29
2023-07-06T02:21:04.930Z,52.04
2023-07-06T02:23:31.686Z,52.40
2023-07-06T02:25:58.707Z,52.61
2023-07-06T02:28:25.809Z,52.90
2023-07-06T02:30:55.810Z,52.20
2023-07-06T02:33:23.157Z,52.61
2023-07-06T02:35:50.409Z,52.59
2023-07-06T02:38:19.772Z,52.30
2023-07-06T02:40:50.771Z,52.30
2023-07-06T02:43:17.902Z,52.00
2023-07-06T02:45:49.509Z,51.80
2023-07-06T02:48:16.552Z,52.16
2023-07-06T02:50:48.360Z,51.00
2023-07-06T02:53:16.001Z,51.96
2023-07-06T02:55:42.756Z,51.60
2023-07-06T02:58:09.435Z,52.07
2023-07-06T03:00:36.194Z,51.89
2023-07-06T03:03:02.895Z,51.65
2023-07-06T03:05:31.304Z,51.37
2023-07-06T03:07:58.160Z,51.50
2023-07-06T03:10:24.975Z,51.53
2023-07-06T03:12:52.537Z,51.16
2023-07-06T03:15:19.244Z,51.00
2023-07-06T03:17:49.986Z,51.13
2023-07-06T03:20:20.814Z,50.18
2023-07-06T03:22:49.978Z,50.68
2023-07-06T03:25:17.097Z,50.17
2023-07-06T03:27:44.809Z,50.16
2023-07-06T03:30:13.010Z,50.46
2023-07-06T03:32:39.982Z,50.49
2023-07-06T03:35:10.406Z,50.92
2023-07-06T03:37:43.807Z,50.51
2023-07-06T03:40:12.534Z,51.07
2023-07-06T03:42:40.728Z,51.31
2023-07-06T03:45:09.525Z,51.38
2023-07-06T03:47:38.847Z,51.48
2023-07-06T03:50:09.960Z,52.47
2023-07-06T03:52:40.844Z,52.58
2023-07-06T03:55:21.210Z,51.66
2023-07-06T03:58:02.827Z,53.58
2023-07-06T04:00:31.998Z,53.17
2023-07-06T04:03:05.578Z,52.49
2023-07-06T04:05:36.303Z,53.97
2023-07-06T04:08:06.379Z,53.48
2023-07-06T04:10:34.990Z,53.46
2023-07-06T04:13:01.829Z,53.01
2023-07-06T04:15:28.584Z,53.12
2023-07-06T04:17:55.476Z,52.61
2023-07-06T04:20:25.595Z,52.28
2023-07-06T04:22:58.572Z,53.33
2023-07-06T04:25:30.999Z,51.92
2023-07-06T04:28:07.095Z,51.47
2023-07-06T04:30:36.597Z,51.91
2023-07-06T04:33:05.519Z,52.92
2023-07-06T04:35:33.180Z,51.84
2023-07-06T04:38:03.350Z,52.29
2023-07-06T04:40:30.054Z,51.48
2023-07-06T04:42:57.250Z,52.29
2023-07-06T04:45:27.123Z,52.16
2023-07-06T04:47:55.515Z,51.96
2023-07-06T04:50:25.230Z,51.57
2023-07-06T04:52:57.350Z,51.02
2023-07-06T04:55:26.877Z,51.44
2023-07-06T04:57:57.453Z,50.40
2023-07-06T05:00:26.171Z,50.70
2023-07-06T05:02:54.402Z,50.51
2023-07-06T05:05:22.021Z,50.03
2023-07-06T05:07:48.706Z,50.37
2023-07-06T05:10:16.780Z,49.42
2023-07-06T05:12:44.289Z,48.90
2023-07-06T05:15:11.919Z,48.96
2023-07-06T05:17:39.891Z,48.71
2023-07-06T05:20:08.057Z,48.94
2023-07-06T05:22:41.129Z,48.40
2023-07-06T05:25:09.307Z,47.95
2023-07-06T05:27:36.670Z,48.48
2023-07-06T05:30:04.570Z,48.14
2023-07-06T05:32:31.391Z,48.44
2023-07-06T05:34:58.968Z,48.23
2023-07-06T05:37:35.332Z,48.51
2023-07-06T05:40:05.826Z,48.83
2023-07-06T05:42:33.024Z,49.15
2023-07-06T05:44:59.769Z,49.17
2023-07-06T05:47:28.350Z,49.58
2023-07-06T05:49:55.501Z,49.38
2023-07-06T05:52:22.568Z,49.54
2023-07-06T05:54:49.452Z,49.37
2023-07-06T05:57:18.779Z,49.32
2023-07-06T05:59:46.835Z,49.72
2023-07-06T06:02:20.068Z,49.69
2023-07-06T06:04:48.297Z,50.03
2023-07-06T06:07:15.553Z,49.21
2023-07-06T06:09:43.187Z,50.24
2023-07-06T06:12:12.017Z,50.25
2023-07-06T06:14:39.225Z,49.72
2023-07-06T06:17:06.390Z,49.63
2023-07-06T06:19:38.873Z,49.82
2023-07-06T06:22:07.288Z,50.14
2023-07-06T06:24:34.238Z,50.45
2023-07-06T06:27:01.633Z,50.08
2023-07-06T06:29:28.688Z,50.18
2023-07-06T06:31:55.964Z,50.13
2023-07-06T06:34:24.460Z,50.05
2023-07-06T06:36:51.210Z,50.33
2023-07-06T06:39:17.890Z,50.67
2023-07-06T06:41:45.448Z,50.09
2023-07-06T06:44:15.799Z,49.70
2023-07-06T06:46:42.660Z,49.20
2023-07-06T06:49:09.382Z,49.46
2023-07-06T06:51:36.194Z,49.37
2023-07-06T06:54:02.942Z,49.29
2023-07-06T06:56:30.425Z,49.35
2023-07-06T06:58:58.107Z,49.03
2023-07-06T07:01:25.055Z,48.72
2023-07-06T07:03:52.127Z,49.24
2023-07-06T07:06:18.964Z,48.88
2023-07-06T07:08:50.683Z,48.76
2023-07-06T07:11:24.129Z,49.22
2023-07-06T07:13:53.417Z,48.81
2023-07-06T07:16:20.827Z,48.39
2023-07-06T07:18:49.643Z,47.89
2023-07-06T07:21:17.498Z,48.83
2023-07-06T07:23:48.837Z,48.02
2023-07-06T07:26:19.156Z,48.21
2023-07-06T07:28:48.986Z,48.43
2023-07-06T07:31:19.213Z,48.34
2023-07-06T07:33:50.688Z,49.29
2023-07-06T07:36:19.112Z,47.74
2023-07-06T07:38:47.446Z,48.73
2023-07-06T07:41:14.947Z,47.42
2023-07-06T07:43:44.203Z,47.66
2023-07-06T07:46:12.675Z,46.52
2023-07-06T07:48:46.480Z,46.62
2023-07-06T07:51:16.065Z,46.90
2023-07-06T07:53:45.843Z,46.14
2023-07-06T07:56:17.321Z,46.21
2023-07-06T07:58:48.745Z,45.96
2023-07-06T08:01:22.189Z,45.29
2023-07-06T08:03:50.282Z,45.27
2023-07-06T08:06:20.362Z,45.04
2023-07-06T08:08:49.337Z,45.84
2023-07-06T08:11:17.744Z,44.32
2023-07-06T08:13:51.829Z,44.53
2023-07-06T08:16:21.779Z,43.41
2023-07-06T08:18:50.268Z,43.79
2023-07-06T08:21:44.524Z,43.74
2023-07-06T08:24:06.929Z,44.25
2023-07-06T08:26:33.704Z,43.97
2023-07-06T08:29:00.286Z,43.70
2023-07-06T08:31:28.442Z,43.41
2023-07-06T08:33:55.334Z,44.33
2023-07-06T08:36:22.262Z,44.24
2023-07-06T08:38:49.126Z,42.57
2023-07-06T08:41:23.594Z,43.44
2023-07-06T08:43:51.574Z,42.13
2023-07-06T08:46:19.636Z,41.19
2023-07-06T08:48:46.432Z,41.03
2023-07-06T08:51:24.502Z,41.03
2023-07-06T08:53:56.173Z,40.84
2023-07-06T08:56:26.018Z,41.76
2023-07-06T08:58:53.747Z,41.33
2023-07-06T09:01:24.004Z,41.36
2023-07-06T09:03:57.037Z,41.30
2023-07-06T09:06:27.526Z,42.06
2023-07-06T09:08:57.075Z,41.22
2023-07-06T09:11:26.527Z,40.86
2023-07-06T09:13:58.338Z,40.87
2023-07-06T09:16:26.491Z,40.17
2023-07-06T09:18:54.460Z,40.56
2023-07-06T09:21:27.088Z,40.80
2023-07-06T09:23:54.488Z,39.30
2023-07-06T09:26:33.754Z,40.04
2023-07-06T09:29:26.596Z,40.67
2023-07-06T09:32:18.126Z,40.41
2023-07-06T09:34:48.454Z,38.29
2023-07-06T09:37:16.321Z,39.50
2023-07-06T09:39:56.768Z,37.54
2023-07-06T09:42:24.160Z,37.38
2023-07-06T09:44:51.846Z,37.65
2023-07-06T09:47:18.896Z,38.10
2023-07-06T09:49:53.461Z,37.30
2023-07-06T09:52:21.064Z,37.07
2023-07-06T09:55:35.296Z,38.01
2023-07-06T09:58:02.705Z,37.27
2023-07-06T10:00:41.220Z,38.03
2023-07-06T10:03:35.262Z,38.59
2023-07-06T10:06:23.756Z,38.18
2023-07-06T10:09:18.192Z,38.08
2023-07-06T10:11:53.277Z,36.93
2023-07-06T10:14:46.888Z,37.04
2023-07-06T10:17:32.504Z,37.14
2023-07-06T10:20:37.629Z,37.96
2023-07-06T10:23:16.404Z,35.49
2023-07-06T10:26:23.024Z,36.89
2023-07-06T10:28:56.580Z,34.37
2023-07-06T10:31:32.734Z,35.21
2023-07-06T10:34:08.614Z,36.14
2023-07-06T10:36:37.183Z,34.26
2023-07-06T10:39:34.834Z,36.36
2023-07-06T10:42:11.360Z,34.23
2023-07-06T10:44:42.986Z,36.47
2023-07-06T10:47:31.318Z,37.08
2023-07-06T10:50:09.248Z,36.33
2023-07-06T10:52:40.806Z,35.27
2023-07-06T10:55:36.610Z,36.88
2023-07-06T10:58:30.786Z,36.49
2023-07-06T11:01:00.110Z,34.60
2023-07-06T11:03:30.407Z,34.65
2023-07-06T11:06:07.941Z,34.25
2023-07-06T11:09:11.380Z,35.01
2023-07-06T11:11:51.485Z,35.50
2023-07-06T11:14:34.395Z,32.66
2023-07-06T11:17:24.627Z,34.94
2023-07-06T11:19:57.763Z,33.10
2023-07-06T11:22:26.417Z,32.95
2023-07-06T11:25:01.251Z,31.49
2023-07-06T11:27:31.634Z,31.75
2023-07-06T11:30:15.506Z,33.27
2023-07-06T11:32:44.879Z,32.85
2023-07-06T11:35:31.380Z,33.54
2023-07-06T11:38:13.896Z,33.29
2023-07-06T11:41:12.797Z,34.27
2023-07-06T11:44:18.065Z,34.40
2023-07-06T11:46:59.763Z,34.29
2023-07-06T11:49:36.024Z,33.00
2023-07-06T11:52:06.826Z,32.89
2023-07-06T11:54:52.789Z,32.58
2023-07-06T11:57:28.480Z,33.12
2023-07-06T12:00:19.441Z,31.32
2023-07-06T12:03:07.508Z,31.92
2023-07-06T12:05:37.231Z,32.19
2023-07-06T12:08:16.612Z,32.66
2023-07-06T12:10:51.856Z,33.52
2023-07-06T12:13:26.704Z,33.26
2023-07-06T12:16:28.901Z,33.50
2023-07-06T12:19:06.492Z,32.84
2023-07-06T12:21:40.640Z,31.32
2023-07-06T12:24:13.103Z,31.39
2023-07-06T12:26:48.317Z,32.15
2023-07-06T12:29:19.218Z,30.53
2023-07-06T12:31:47.185Z,30.66
2023-07-06T12:34:19.447Z,31.79
2023-07-06T12:36:51.191Z,31.87
2023-07-06T12:39:19.838Z,30.86
2023-07-06T12:41:48.188Z,31.97
2023-07-06T12:44:19.577Z,32.40
2023-07-06T12:46:54.801Z,32.64
2023-07-06T12:49:24.288Z,31.84
2023-07-06T12:51:57.110Z,32.19
2023-07-06T12:54:28.310Z,31.61
2023-07-06T12:57:00.412Z,31.85
2023-07-06T12:59:33.954Z,32.30
2023-07-06T13:02:14.375Z,31.88
2023-07-06T13:04:46.971Z,31.58
2023-07-06T13:07:16.620Z,30.84
2023-07-06T13:09:43.280Z,31.05
2023-07-06T13:12:19.235Z,31.37
2023-07-06T13:14:48.204Z,31.52
2023-07-06T13:17:17.575Z,31.67
2023-07-06T13:19:46.223Z,30.83
2023-07-06T13:22:14.664Z,31.17
2023-07-06T13:24:42.175Z,30.59
2023-07-06T13:27:16.822Z,31.40
2023-07-06T13:29:44.032Z,30.97
2023-07-06T13:32:19.173Z,30.97
2023-07-06T13:34:51.303Z,30.21
2023-07-06T13:37:30.113Z,30.26
2023-07-06T13:40:01.631Z,29.65
2023-07-06T13:42:29.586Z,29.78
2023-07-06T13:44:59.302Z,28.57
2023-07-06T13:47:27.626Z,29.58
2023-07-06T13:49:57.357Z,28.68
2023-07-06T13:52:24.122Z,29.06
2023-07-06T13:54:50.740Z,28.95
2023-07-06T13:57:17.456Z,27.38
2023-07-06T13:59:44.042Z,27.76
2023-07-06T14:02:14.577Z,27.79
2023-07-06T14:04:42.864Z,27.80
2023-07-06T14:07:10.605Z,28.18
2023-07-06T14:09:37.414Z,28.39
2023-07-06T14:12:06.714Z,28.64
2023-07-06T14:14:33.891Z,28.96
2023-07-06T14:17:00.746Z,28.66
2023-07-06T14:19:27.550Z,28.70
2023-07-06T14:21:55.132Z,29.05
2023-07-06T14:24:23.209Z,28.70
2023-07-06T14:26:50.218Z,29.39
2023-07-06T14:29:17.550Z,28.96
2023-07-06T14:31:49.520Z,30.14
2023-07-06T14:34:18.220Z,29.12
2023-07-06T14:36:45.460Z,29.05
2023-07-06T14:39:12.189Z,28.85
2023-07-06T14:41:38.948Z,29.34
2023-07-06T14:44:05.932Z,28.64
2023-07-06T14:46:32.894Z,29.15
2023-07-06T14:48:59.853Z,29.01
2023-07-06T14:51:26.900Z,30.34
2023-07-06T14:53:53.804Z,29.87
2023-07-06T14:56:22.515Z,29.17
2023-07-06T14:58:50.179Z,28.41
2023-07-06T15:01:17.090Z,28.14
2023-07-06T15:03:43.889Z,27.98
2023-07-06T15:06:12.083Z,28.84
2023-07-06T15:08:39.002Z,30.13
2023-07-06T15:11:05.737Z,27.66
2023-07-06T15:13:32.581Z,27.60
2023-07-06T15:15:59.958Z,28.29
2023-07-06T15:18:27.130Z,29.06
2023-07-06T15:21:08.303Z,29.80
2023-07-06T15:23:35.177Z,28.69
2023-07-06T15:26:01.935Z,28.31
2023-07-06T15:28:28.631Z,28.50
2023-07-06T15:30:55.389Z,28.53
2023-07-06T15:33:22.221Z,28.40
2023-07-06T15:35:48.910Z,28.28
2023-07-06T15:38:15.728Z,28.03
2023-07-06T15:40:46.993Z,28.67
2023-07-06T15:43:14.304Z,28.07
2023-07-06T15:45:43.392Z,27.88
2023-07-06T15:48:10.511Z,27.94
2023-07-06T15:50:38.582Z,28.64
2023-07-06T15:53:06.913Z,27.68
2023-07-06T15:55:34.087Z,28.19
2023-07-06T15:58:02.195Z,27.45
2023-07-06T16:00:32.710Z,26.85
2023-07-06T16:03:00.893Z,26.97
2023-07-06T16:05:28.146Z,26.97
2023-07-06T16:07:55.333Z,27.47
2023-07-06T16:10:22.067Z,26.89
2023-07-06T16:12:48.946Z,26.93
2023-07-06T16:15:15.771Z,27.21
2023-07-06T16:17:43.340Z,27.39
2023-07-06T16:20:10.639Z,27.21
2023-07-06T16:22:37.429Z,27.51
2023-07-06T16:25:04.301Z,27.92
2023-07-06T16:27:31.345Z,27.96
2023-07-06T16:29:58.054Z,27.42
2023-07-06T16:32:24.766Z,27.12
2023-07-06T16:34:51.488Z,27.96
2023-07-06T16:37:18.147Z,28.16
2023-07-06T16:39:44.836Z,28.89
2023-07-06T16:42:11.756Z,28.43
2023-07-06T16:44:38.534Z,28.82
2023-07-06T16:47:05.340Z,29.33
2023-07-06T16:49:32.047Z,29.11
2023-07-06T16:51:58.728Z,28.75
2023-07-06T16:54:25.419Z,29.15
2023-07-06T16:56:52.317Z,29.27
2023-07-06T16:59:19.083Z,29.74
2023-07-06T17:01:48.700Z,29.22
2023-07-06T17:04:15.877Z,28.99
2023-07-06T17:06:42.711Z,28.77
2023-07-06T17:09:09.464Z,29.22
2023-07-06T17:11:36.166Z,29.37
2023-07-06T17:14:03.227Z,29.04
2023-07-06T17:16:30.298Z,28.26
2023-07-06T17:18:57.060Z,28.91
2023-07-06T17:21:23.787Z,28.22
2023-07-06T17:23:51.889Z,27.97
2023-07-06T17:26:18.607Z,28.00
2023-07-06T17:28:45.332Z,28.96
2023-07-06T17:31:15.242Z,29.14
2023-07-06T17:33:42.237Z,29.71
2023-07-06T17:36:10.396Z,29.28
2023-07-06T17:38:37.866Z,29.43
2023-07-06T17:41:07.167Z,29.76
2023-07-06T17:43:34.614Z,29.85
2023-07-06T17:46:01.716Z,29.84
2023-07-06T17:48:29.249Z,30.09
2023-07-06T17:51:03.326Z,30.19
2023-07-06T17:53:30.858Z,29.73
2023-07-06T17:55:58.623Z,30.29
2023-07-06T17:58:26.135Z,29.82
2023-07-06T18:00:54.414Z,30.06
2023-07-06T18:03:22.975Z,29.74
2023-07-06T18:05:50.629Z,30.29
2023-07-06T18:08:18.091Z,29.90
2023-07-06T18:10:45.300Z,30.11
2023-07-06T18:13:12.177Z,30.00
2023-07-06T18:15:40.205Z,30.05
2023-07-06T18:18:07.109Z,29.91
2023-07-06T18:20:33.896Z,30.04
2023-07-06T18:23:00.978Z,30.29
2023-07-06T18:25:28.198Z,30.39
2023-07-06T18:27:55.396Z,30.21
2023-07-06T18:30:22.629Z,30.44
2023-07-06T18:32:49.908Z,30.60
2023-07-06T18:35:16.772Z,30.77
2023-07-06T18:37:43.464Z,31.52
2023-07-06T18:40:10.584Z,31.49
2023-07-06T18:42:37.286Z,31.46
2023-07-06T18:45:07.948Z,31.33
2023-07-06T18:47:35.936Z,31.57
2023-07-06T18:50:04.042Z,31.95
2023-07-06T18:52:33.354Z,33.38
2023-07-06T19:51:52.118Z,38.05
2023-07-06T19:54:18.824Z,38.30
2023-07-06T19:56:45.495Z,39.04
2023-07-06T19:59:12.166Z,39.39
2023-07-06T20:01:40.001Z,39.22
2023-07-06T20:04:11.371Z,39.59
2023-07-06T20:06:40.410Z,39.14
2023-07-06T20:09:07.889Z,39.49
2023-07-06T20:11:34.821Z,39.23
2023-07-06T20:14:02.078Z,39.82
2023-07-06T20:16:28.969Z,39.42
2023-07-06T20:18:55.701Z,39.88
2023-07-06T20:21:22.392Z,39.88
2023-07-06T20:23:49.135Z,39.61
2023-07-06T20:26:15.846Z,39.82
2023-07-06T20:28:42.522Z,40.30
2023-07-06T20:31:09.349Z,40.52
2023-07-06T20:33:36.071Z,40.92
2023-07-06T20:36:07.424Z,40.04
2023-07-06T20:38:34.974Z,40.70
2023-07-06T20:41:01.957Z,40.85
2023-07-06T20:43:29.135Z,41.17
2023-07-06T20:45:57.096Z,41.60
2023-07-06T20:48:24.082Z,42.08
2023-07-06T20:50:52.483Z,41.70
2023-07-06T20:53:19.362Z,42.03
2023-07-06T20:55:46.104Z,42.78
2023-07-06T20:58:12.806Z,42.18
2023-07-06T21:00:41.511Z,42.08
2023-07-06T21:03:09.858Z,46.13
2023-07-06T21:05:39.216Z,46.21
2023-07-06T21:08:06.188Z,47.11
2023-07-06T21:10:32.967Z,46.68
2023-07-06T21:13:00.466Z,45.99
2023-07-06T21:15:27.593Z,45.84
2023-07-06T21:17:54.476Z,45.62
2023-07-06T21:20:21.241Z,45.25
2023-07-06T21:22:47.911Z,45.13
2023-07-06T21:25:14.807Z,45.01
2023-07-06T21:27:41.468Z,44.58
2023-07-06T21:30:08.578Z,44.40
2023-07-06T21:32:35.446Z,44.16
2023-07-06T21:35:03.689Z,43.89
2023-07-06T21:37:30.372Z,43.92
2023-07-06T21:39:57.087Z,43.75
2023-07-06T21:42:23.897Z,46.00
2023-07-06T21:44:50.601Z,44.74
2023-07-06T21:47:21.174Z,43.68
2023-07-06T21:49:47.912Z,43.59
2023-07-06T21:52:14.623Z,43.41
2023-07-06T21:54:41.292Z,42.99
2023-07-06T21:57:08.072Z,43.31
2023-07-06T21:59:34.839Z,42.59
2023-07-06T22:02:01.553Z,42.93
2023-07-06T22:04:29.440Z,42.52
2023-07-06T22:06:56.191Z,42.65
2023-07-06T22:09:23.255Z,42.62
2023-07-06T22:11:50.078Z,42.53
2023-07-06T22:14:16.871Z,42.51
2023-07-06T22:16:43.559Z,42.26
2023-07-06T22:19:10.291Z,42.61
2023-07-06T22:21:37.078Z,42.42
2023-07-06T22:24:05.178Z,42.19
2023-07-06T22:26:31.976Z,42.30
2023-07-06T22:28:59.935Z,42.50
2023-07-06T22:31:27.066Z,42.48
2023-07-06T22:33:53.788Z,42.31
2023-07-06T22:36:20.491Z,42.04
2023-07-06T22:38:48.391Z,42.42
2023-07-06T22:41:16.491Z,42.23
2023-07-06T22:43:43.297Z,42.25
2023-07-06T22:46:10.309Z,42.10
2023-07-06T22:48:36.969Z,42.53
2023-07-06T22:51:03.671Z,42.74
2023-07-06T22:53:31.357Z,42.46
2023-07-06T22:55:59.040Z,42.41
2023-07-06T22:58:25.866Z,42.52
2023-07-06T23:00:52.671Z,42.16
2023-07-06T23:03:21.297Z,42.54
2023-07-06T23:05:48.095Z,42.70
2023-07-06T23:08:15.858Z,42.47
2023-07-06T23:10:45.406Z,42.39
2023-07-06T23:13:14.443Z,42.65
2023-07-06T23:15:44.873Z,42.52
2023-07-06T23:18:11.994Z,42.38
2023-07-06T23:20:40.007Z,42.49
2023-07-06T23:23:07.318Z,42.43
2023-07-06T23:25:35.597Z,42.66
2023-07-06T23:28:05.953Z,42.65
2023-07-06T23:30:37.009Z,42.75
2023-07-06T23:33:10.511Z,42.31
2023-07-06T23:35:43.828Z,42.60
2023-07-06T23:38:13.771Z,42.69
2023-07-06T23:40:42.036Z,42.60
2023-07-06T23:43:09.841Z,42.60
2023-07-06T23:45:36.672Z,42.60
2023-07-06T23:48:05.810Z,42.69
2023-07-06T23:50:32.792Z,42.82
2023-07-06T23:52:59.567Z,42.67
2023-07-06T23:55:26.424Z,42.81
2023-07-06T23:57:53.427Z,42.87
